sensor_id;sensor_type;location;lat;lon;timestamp;temperature;humidity
68109;SHT30;54893;49.864;19.084;2023-08-12T00:00:39;15.91;79.10
68109;SHT30;54893;49.864;19.084;2023-08-12T00:05:39;15.85;78.99
68109;SHT30;54893;49.864;19.084;2023-08-12T00:10:41;15.75;79.18
68109;SHT30;54893;49.864;19.084;2023-08-12T00:15:41;15.77;79.45
68109;SHT30;54893;49.864;19.084;2023-08-12T00:20:42;15.68;79.27
68109;SHT30;54893;49.864;19.084;2023-08-12T00:25:42;15.47;80.07
68109;SHT30;54893;49.864;19.084;2023-08-12T00:30:42;15.34;80.91
68109;SHT30;54893;49.864;19.084;2023-08-12T00:35:43;15.19;81.43
68109;SHT30;54893;49.864;19.084;2023-08-12T00:40:43;15.17;80.72
68109;SHT30;54893;49.864;19.084;2023-08-12T00:45:44;15.22;80.44
68109;SHT30;54893;49.864;19.084;2023-08-12T00:50:45;15.30;80.09
68109;SHT30;54893;49.864;19.084;2023-08-12T00:55:45;15.26;80.13
68109;SHT30;54893;49.864;19.084;2023-08-12T01:00:46;15.27;80.50
68109;SHT30;54893;49.864;19.084;2023-08-12T01:05:46;15.20;81.57
68109;SHT30;54893;49.864;19.084;2023-08-12T01:10:52;15.02;81.13
68109;SHT30;54893;49.864;19.084;2023-08-12T01:15:59;14.82;81.93
68109;SHT30;54893;49.864;19.084;2023-08-12T01:21:01;14.76;81.71
68109;SHT30;54893;49.864;19.084;2023-08-12T01:26:03;14.69;83.28
68109;SHT30;54893;49.864;19.084;2023-08-12T01:31:28;14.58;83.52
68109;SHT30;54893;49.864;19.084;2023-08-12T01:36:31;14.41;84.22
68109;SHT30;54893;49.864;19.084;2023-08-12T01:41:32;14.31;84.08
68109;SHT30;54893;49.864;19.084;2023-08-12T01:46:32;14.36;82.94
68109;SHT30;54893;49.864;19.084;2023-08-12T01:51:33;14.42;83.83
68109;SHT30;54893;49.864;19.084;2023-08-12T01:56:33;14.55;81.92
68109;SHT30;54893;49.864;19.084;2023-08-12T02:01:33;14.73;81.23
68109;SHT30;54893;49.864;19.084;2023-08-12T02:06:33;14.66;81.95
68109;SHT30;54893;49.864;19.084;2023-08-12T02:11:34;14.62;82.13
68109;SHT30;54893;49.864;19.084;2023-08-12T02:16:34;14.56;82.63
68109;SHT30;54893;49.864;19.084;2023-08-12T02:21:34;14.49;82.53
68109;SHT30;54893;49.864;19.084;2023-08-12T02:26:35;14.41;82.67
68109;SHT30;54893;49.864;19.084;2023-08-12T02:31:35;14.29;83.12
68109;SHT30;54893;49.864;19.084;2023-08-12T02:36:35;14.29;85.09
68109;SHT30;54893;49.864;19.084;2023-08-12T02:41:36;14.17;83.69
68109;SHT30;54893;49.864;19.084;2023-08-12T02:46:36;14.08;85.21
68109;SHT30;54893;49.864;19.084;2023-08-12T02:51:36;13.98;84.35
68109;SHT30;54893;49.864;19.084;2023-08-12T02:56:37;13.84;85.59
68109;SHT30;54893;49.864;19.084;2023-08-12T03:01:37;13.81;85.97
68109;SHT30;54893;49.864;19.084;2023-08-12T03:06:37;13.71;85.30
68109;SHT30;54893;49.864;19.084;2023-08-12T03:11:38;13.70;85.51
68109;SHT30;54893;49.864;19.084;2023-08-12T03:16:38;13.66;86.20
68109;SHT30;54893;49.864;19.084;2023-08-12T03:21:38;13.63;85.62
68109;SHT30;54893;49.864;19.084;2023-08-12T03:26:39;13.58;85.97
68109;SHT30;54893;49.864;19.084;2023-08-12T03:31:39;13.53;85.10
68109;SHT30;54893;49.864;19.084;2023-08-12T03:36:39;13.37;87.41
68109;SHT30;54893;49.864;19.084;2023-08-12T03:41:40;13.13;89.07
68109;SHT30;54893;49.864;19.084;2023-08-12T03:46:41;12.88;90.46
68109;SHT30;54893;49.864;19.084;2023-08-12T03:51:41;12.83;90.58
68109;SHT30;54893;49.864;19.084;2023-08-12T03:56:41;12.92;90.37
68109;SHT30;54893;49.864;19.084;2023-08-12T04:01:42;13.06;90.58
68109;SHT30;54893;49.864;19.084;2023-08-12T04:06:42;13.20;89.36
68109;SHT30;54893;49.864;19.084;2023-08-12T04:11:42;13.63;90.88
68109;SHT30;54893;49.864;19.084;2023-08-12T04:16:43;14.02;89.99
68109;SHT30;54893;49.864;19.084;2023-08-12T04:21:43;14.41;88.65
68109;SHT30;54893;49.864;19.084;2023-08-12T04:26:46;14.80;87.59
68109;SHT30;54893;49.864;19.084;2023-08-12T04:31:46;15.07;86.94
68109;SHT30;54893;49.864;19.084;2023-08-12T04:36:46;15.58;85.39
68109;SHT30;54893;49.864;19.084;2023-08-12T04:41:47;16.01;84.22
68109;SHT30;54893;49.864;19.084;2023-08-12T04:46:47;16.39;83.17
68109;SHT30;54893;49.864;19.084;2023-08-12T04:51:47;16.80;82.45
68109;SHT30;54893;49.864;19.084;2023-08-12T04:56:48;17.12;81.95
68109;SHT30;54893;49.864;19.084;2023-08-12T05:01:48;17.53;79.97
68109;SHT30;54893;49.864;19.084;2023-08-12T05:06:48;17.66;79.87
68109;SHT30;54893;49.864;19.084;2023-08-12T05:11:49;18.42;77.84
68109;SHT30;54893;49.864;19.084;2023-08-12T05:16:49;18.62;77.65
68109;SHT30;54893;49.864;19.084;2023-08-12T05:21:49;18.62;77.43
68109;SHT30;54893;49.864;19.084;2023-08-12T05:26:50;19.07;77.04
68109;SHT30;54893;49.864;19.084;2023-08-12T05:31:50;19.54;75.79
68109;SHT30;54893;49.864;19.084;2023-08-12T05:36:50;19.81;75.26
68109;SHT30;54893;49.864;19.084;2023-08-12T05:41:51;20.13;74.66
68109;SHT30;54893;49.864;19.084;2023-08-12T05:46:52;20.26;74.23
68109;SHT30;54893;49.864;19.084;2023-08-12T05:51:52;20.86;74.26
68109;SHT30;54893;49.864;19.084;2023-08-12T05:56:53;21.04;72.45
68109;SHT30;54893;49.864;19.084;2023-08-12T06:01:54;20.71;72.45
68109;SHT30;54893;49.864;19.084;2023-08-12T06:06:54;21.07;73.82
68109;SHT30;54893;49.864;19.084;2023-08-12T06:11:54;22.10;70.34
68109;SHT30;54893;49.864;19.084;2023-08-12T06:16:55;22.18;71.31
68109;SHT30;54893;49.864;19.084;2023-08-12T06:21:55;22.31;71.74
68109;SHT30;54893;49.864;19.084;2023-08-12T06:26:55;21.76;71.89
68109;SHT30;54893;49.864;19.084;2023-08-12T06:31:56;21.91;71.53
68109;SHT30;54893;49.864;19.084;2023-08-12T06:36:56;22.00;71.33
68109;SHT30;54893;49.864;19.084;2023-08-12T06:41:56;22.48;69.37
68109;SHT30;54893;49.864;19.084;2023-08-12T06:46:57;22.40;71.51
68109;SHT30;54893;49.864;19.084;2023-08-12T06:51:57;22.89;69.71
68109;SHT30;54893;49.864;19.084;2023-08-12T06:56:57;23.86;67.86
68109;SHT30;54893;49.864;19.084;2023-08-12T07:01:58;24.30;65.15
68109;SHT30;54893;49.864;19.084;2023-08-12T07:06:59;24.94;64.83
68109;SHT30;54893;49.864;19.084;2023-08-12T07:11:59;25.11;64.70
68109;SHT30;54893;49.864;19.084;2023-08-12T07:17:01;25.28;63.51
68109;SHT30;54893;49.864;19.084;2023-08-12T07:22:02;25.33;64.27
68109;SHT30;54893;49.864;19.084;2023-08-12T07:27:02;25.26;63.28
68109;SHT30;54893;49.864;19.084;2023-08-12T07:32:03;25.59;61.76
68109;SHT30;54893;49.864;19.084;2023-08-12T07:37:03;25.63;59.53
68109;SHT30;54893;49.864;19.084;2023-08-12T07:42:03;25.58;59.06
68109;SHT30;54893;49.864;19.084;2023-08-12T07:47:04;25.18;57.82
68109;SHT30;54893;49.864;19.084;2023-08-12T07:52:05;26.24;59.27
68109;SHT30;54893;49.864;19.084;2023-08-12T07:57:05;26.34;57.84
68109;SHT30;54893;49.864;19.084;2023-08-12T08:02:05;25.80;56.98
68109;SHT30;54893;49.864;19.084;2023-08-12T08:07:06;26.23;56.67
68109;SHT30;54893;49.864;19.084;2023-08-12T08:12:07;25.97;57.69
68109;SHT30;54893;49.864;19.084;2023-08-12T08:17:08;26.84;56.38
68109;SHT30;54893;49.864;19.084;2023-08-12T08:22:08;26.54;55.85
68109;SHT30;54893;49.864;19.084;2023-08-12T08:27:09;26.78;55.37
68109;SHT30;54893;49.864;19.084;2023-08-12T08:32:10;27.15;55.40
68109;SHT30;54893;49.864;19.084;2023-08-12T08:37:10;26.67;55.49
68109;SHT30;54893;49.864;19.084;2023-08-12T08:42:11;26.64;54.78
68109;SHT30;54893;49.864;19.084;2023-08-12T08:47:13;26.75;55.53
68109;SHT30;54893;49.864;19.084;2023-08-12T08:52:15;27.08;55.56
68109;SHT30;54893;49.864;19.084;2023-08-12T08:57:16;26.94;55.02
68109;SHT30;54893;49.864;19.084;2023-08-12T09:02:17;26.65;54.79
68109;SHT30;54893;49.864;19.084;2023-08-12T09:07:17;27.59;55.24
68109;SHT30;54893;49.864;19.084;2023-08-12T09:12:19;27.31;55.03
68109;SHT30;54893;49.864;19.084;2023-08-12T09:17:20;26.85;55.84
68109;SHT30;54893;49.864;19.084;2023-08-12T09:22:24;27.79;54.59
68109;SHT30;54893;49.864;19.084;2023-08-12T09:27:24;28.06;54.27
68109;SHT30;54893;49.864;19.084;2023-08-12T09:32:25;28.12;55.08
68109;SHT30;54893;49.864;19.084;2023-08-12T09:37:25;28.18;54.18
68109;SHT30;54893;49.864;19.084;2023-08-12T09:42:27;27.49;54.00
68109;SHT30;54893;49.864;19.084;2023-08-12T09:47:28;28.40;54.13
68109;SHT30;54893;49.864;19.084;2023-08-12T09:52:28;28.34;53.87
68109;SHT30;54893;49.864;19.084;2023-08-12T09:57:30;27.80;54.87
68109;SHT30;54893;49.864;19.084;2023-08-12T10:02:32;27.70;53.69
68109;SHT30;54893;49.864;19.084;2023-08-12T10:07:32;28.10;53.84
68109;SHT30;54893;49.864;19.084;2023-08-12T10:12:33;28.00;54.57
68109;SHT30;54893;49.864;19.084;2023-08-12T10:17:35;28.82;53.37
68109;SHT30;54893;49.864;19.084;2023-08-12T10:22:36;29.14;52.95
68109;SHT30;54893;49.864;19.084;2023-08-12T10:27:37;28.36;53.13
68109;SHT30;54893;49.864;19.084;2023-08-12T10:32:38;27.53;54.80
68109;SHT30;54893;49.864;19.084;2023-08-12T10:37:39;27.59;55.11
68109;SHT30;54893;49.864;19.084;2023-08-12T10:42:45;28.36;53.81
68109;SHT30;54893;49.864;19.084;2023-08-12T10:47:51;28.24;53.64
68109;SHT30;54893;49.864;19.084;2023-08-12T10:52:53;28.06;52.94
68109;SHT30;54893;49.864;19.084;2023-08-12T10:57:54;28.58;53.29
68109;SHT30;54893;49.864;19.084;2023-08-12T11:02:56;28.10;53.38
68109;SHT30;54893;49.864;19.084;2023-08-12T11:07:58;27.94;52.66
68109;SHT30;54893;49.864;19.084;2023-08-12T11:13:01;28.21;53.09
68109;SHT30;54893;49.864;19.084;2023-08-12T11:18:04;27.94;53.43
68109;SHT30;54893;49.864;19.084;2023-08-12T11:23:06;28.06;53.96
68109;SHT30;54893;49.864;19.084;2023-08-12T11:28:07;28.14;53.57
68109;SHT30;54893;49.864;19.084;2023-08-12T11:33:08;28.40;54.09
68109;SHT30;54893;49.864;19.084;2023-08-12T11:38:08;28.36;53.62
68109;SHT30;54893;49.864;19.084;2023-08-12T11:43:09;28.27;54.05
68109;SHT30;54893;49.864;19.084;2023-08-12T11:48:10;28.24;54.23
68109;SHT30;54893;49.864;19.084;2023-08-12T11:53:10;28.78;53.82
68109;SHT30;54893;49.864;19.084;2023-08-12T11:58:14;29.63;52.91
68109;SHT30;54893;49.864;19.084;2023-08-12T12:03:18;28.69;53.42
68109;SHT30;54893;49.864;19.084;2023-08-12T12:08:19;28.88;53.95
68109;SHT30;54893;49.864;19.084;2023-08-12T12:13:20;28.92;54.03
68109;SHT30;54893;49.864;19.084;2023-08-12T12:18:20;28.72;53.30
68109;SHT30;54893;49.864;19.084;2023-08-12T12:23:21;27.88;54.33
68109;SHT30;54893;49.864;19.084;2023-08-12T12:28:21;28.25;53.82
68109;SHT30;54893;49.864;19.084;2023-08-12T12:33:21;28.12;55.09
68109;SHT30;54893;49.864;19.084;2023-08-12T12:38:22;28.95;54.07
68109;SHT30;54893;49.864;19.084;2023-08-12T12:43:22;28.87;53.16
68109;SHT30;54893;49.864;19.084;2023-08-12T12:48:22;28.81;53.01
68109;SHT30;54893;49.864;19.084;2023-08-12T12:53:23;28.72;53.30
68109;SHT30;54893;49.864;19.084;2023-08-12T12:58:23;29.07;52.75
68109;SHT30;54893;49.864;19.084;2023-08-12T13:03:23;28.91;52.92
68109;SHT30;54893;49.864;19.084;2023-08-12T13:08:24;28.95;53.64
68109;SHT30;54893;49.864;19.084;2023-08-12T13:13:25;29.10;52.79
68109;SHT30;54893;49.864;19.084;2023-08-12T13:18:25;29.25;52.99
68109;SHT30;54893;49.864;19.084;2023-08-12T13:23:26;29.15;52.31
68109;SHT30;54893;49.864;19.084;2023-08-12T13:28:26;29.46;51.60
68109;SHT30;54893;49.864;19.084;2023-08-12T13:33:27;29.25;52.27
68109;SHT30;54893;49.864;19.084;2023-08-12T13:38:28;29.58;51.67
68109;SHT30;54893;49.864;19.084;2023-08-12T13:43:28;29.11;52.64
68109;SHT30;54893;49.864;19.084;2023-08-12T13:48:30;29.63;50.94
68109;SHT30;54893;49.864;19.084;2023-08-12T13:53:30;29.28;51.07
68109;SHT30;54893;49.864;19.084;2023-08-12T13:58:31;29.42;51.22
68109;SHT30;54893;49.864;19.084;2023-08-12T14:03:32;29.70;50.54
68109;SHT30;54893;49.864;19.084;2023-08-12T14:08:32;29.62;50.38
68109;SHT30;54893;49.864;19.084;2023-08-12T14:13:33;29.61;49.99
68109;SHT30;54893;49.864;19.084;2023-08-12T14:18:33;30.16;49.65
68109;SHT30;54893;49.864;19.084;2023-08-12T14:23:33;31.86;48.07
68109;SHT30;54893;49.864;19.084;2023-08-12T14:28:34;35.07;43.78
68109;SHT30;54893;49.864;19.084;2023-08-12T14:33:34;35.55;42.62
68109;SHT30;54893;49.864;19.084;2023-08-12T14:38:34;36.32;41.42
68109;SHT30;54893;49.864;19.084;2023-08-12T14:43:35;37.76;40.28
68109;SHT30;54893;49.864;19.084;2023-08-12T14:48:37;37.70;40.13
68109;SHT30;54893;49.864;19.084;2023-08-12T14:53:37;36.27;41.76
68109;SHT30;54893;49.864;19.084;2023-08-12T14:58:37;38.04;39.73
68109;SHT30;54893;49.864;19.084;2023-08-12T15:03:38;39.08;39.18
68109;SHT30;54893;49.864;19.084;2023-08-12T15:08:38;38.79;38.27
68109;SHT30;54893;49.864;19.084;2023-08-12T15:13:38;39.21;38.98
68109;SHT30;54893;49.864;19.084;2023-08-12T15:18:39;39.45;38.72
68109;SHT30;54893;49.864;19.084;2023-08-12T15:23:39;37.87;40.91
68109;SHT30;54893;49.864;19.084;2023-08-12T15:28:39;36.04;41.68
68109;SHT30;54893;49.864;19.084;2023-08-12T15:33:40;38.01;40.49
68109;SHT30;54893;49.864;19.084;2023-08-12T15:38:41;37.19;40.40
68109;SHT30;54893;49.864;19.084;2023-08-12T15:43:42;38.17;39.04
68109;SHT30;54893;49.864;19.084;2023-08-12T15:48:42;38.43;39.60
68109;SHT30;54893;49.864;19.084;2023-08-12T15:53:43;39.39;39.37
68109;SHT30;54893;49.864;19.084;2023-08-12T15:58:43;39.65;37.54
68109;SHT30;54893;49.864;19.084;2023-08-12T16:03:44;38.65;40.20
68109;SHT30;54893;49.864;19.084;2023-08-12T16:08:44;36.89;40.13
68109;SHT30;54893;49.864;19.084;2023-08-12T16:13:44;37.81;39.60
68109;SHT30;54893;49.864;19.084;2023-08-12T16:18:45;38.64;37.82
68109;SHT30;54893;49.864;19.084;2023-08-12T16:23:45;37.99;39.01
68109;SHT30;54893;49.864;19.084;2023-08-12T16:28:46;36.61;41.21
68109;SHT30;54893;49.864;19.084;2023-08-12T16:33:46;36.12;42.57
68109;SHT30;54893;49.864;19.084;2023-08-12T16:38:46;37.19;41.01
68109;SHT30;54893;49.864;19.084;2023-08-12T16:43:47;36.27;41.87
68109;SHT30;54893;49.864;19.084;2023-08-12T16:48:47;31.85;48.24
68109;SHT30;54893;49.864;19.084;2023-08-12T16:53:47;31.10;48.87
68109;SHT30;54893;49.864;19.084;2023-08-12T16:58:48;30.34;49.66
68109;SHT30;54893;49.864;19.084;2023-08-12T17:03:48;29.16;51.73
68109;SHT30;54893;49.864;19.084;2023-08-12T17:08:48;28.60;52.50
68109;SHT30;54893;49.864;19.084;2023-08-12T17:13:49;28.04;53.17
68109;SHT30;54893;49.864;19.084;2023-08-12T17:18:49;27.26;55.69
68109;SHT30;54893;49.864;19.084;2023-08-12T17:23:49;26.84;56.21
68109;SHT30;54893;49.864;19.084;2023-08-12T17:28:50;26.37;58.26
68109;SHT30;54893;49.864;19.084;2023-08-12T17:33:51;25.82;59.65
68109;SHT30;54893;49.864;19.084;2023-08-12T17:38:52;25.47;61.16
68109;SHT30;54893;49.864;19.084;2023-08-12T17:43:52;27.35;57.37
68109;SHT30;54893;49.864;19.084;2023-08-12T17:48:53;27.94;56.88
68109;SHT30;54893;49.864;19.084;2023-08-12T17:53:53;27.35;58.34
68109;SHT30;54893;49.864;19.084;2023-08-12T17:58:54;25.47;62.32
68109;SHT30;54893;49.864;19.084;2023-08-12T18:03:54;24.40;64.70
68109;SHT30;54893;49.864;19.084;2023-08-12T18:08:54;23.78;65.92
68109;SHT30;54893;49.864;19.084;2023-08-12T18:13:55;23.24;67.71
68109;SHT30;54893;49.864;19.084;2023-08-12T18:18:55;22.71;70.11
68109;SHT30;54893;49.864;19.084;2023-08-12T18:23:56;22.38;70.62
68109;SHT30;54893;49.864;19.084;2023-08-12T18:28:56;22.11;71.88
68109;SHT30;54893;49.864;19.084;2023-08-12T18:33:56;21.93;72.62
68109;SHT30;54893;49.864;19.084;2023-08-12T18:38:57;21.76;73.14
68109;SHT30;54893;49.864;19.084;2023-08-12T18:43:57;21.58;71.82
68109;SHT30;54893;49.864;19.084;2023-08-12T18:48:57;21.54;73.06
68109;SHT30;54893;49.864;19.084;2023-08-12T18:53:58;21.19;73.85
68109;SHT30;54893;49.864;19.084;2023-08-12T18:58:58;20.96;75.05
68109;SHT30;54893;49.864;19.084;2023-08-12T19:03:58;20.92;73.67
68109;SHT30;54893;49.864;19.084;2023-08-12T19:08:59;20.96;73.70
68109;SHT30;54893;49.864;19.084;2023-08-12T19:13:59;20.79;74.16
68109;SHT30;54893;49.864;19.084;2023-08-12T19:19:00;20.78;74.71
68109;SHT30;54893;49.864;19.084;2023-08-12T19:24:01;20.86;73.16
68109;SHT30;54893;49.864;19.084;2023-08-12T19:29:01;20.53;76.38
68109;SHT30;54893;49.864;19.084;2023-08-12T19:34:02;20.38;76.38
68109;SHT30;54893;49.864;19.084;2023-08-12T19:39:03;20.25;76.60
68109;SHT30;54893;49.864;19.084;2023-08-12T19:44:03;20.04;77.46
68109;SHT30;54893;49.864;19.084;2023-08-12T19:49:05;19.95;76.50
68109;SHT30;54893;49.864;19.084;2023-08-12T19:54:05;19.91;78.00
68109;SHT30;54893;49.864;19.084;2023-08-12T19:59:05;19.80;76.87
68109;SHT30;54893;49.864;19.084;2023-08-12T20:04:06;19.81;75.74
68109;SHT30;54893;49.864;19.084;2023-08-12T20:09:06;19.71;80.67
68109;SHT30;54893;49.864;19.084;2023-08-12T20:14:06;19.57;78.40
68109;SHT30;54893;49.864;19.084;2023-08-12T20:19:07;19.53;77.58
68109;SHT30;54893;49.864;19.084;2023-08-12T20:24:07;19.56;77.81
68109;SHT30;54893;49.864;19.084;2023-08-12T20:29:07;19.47;76.63
68109;SHT30;54893;49.864;19.084;2023-08-12T20:34:08;19.49;75.48
68109;SHT30;54893;49.864;19.084;2023-08-12T20:39:08;19.66;77.12
68109;SHT30;54893;49.864;19.084;2023-08-12T20:44:09;19.81;76.61
68109;SHT30;54893;49.864;19.084;2023-08-12T20:49:09;19.71;75.23
68109;SHT30;54893;49.864;19.084;2023-08-12T20:54:10;19.63;74.66
68109;SHT30;54893;49.864;19.084;2023-08-12T20:59:11;19.69;74.20
68109;SHT30;54893;49.864;19.084;2023-08-12T21:04:11;19.82;73.84
68109;SHT30;54893;49.864;19.084;2023-08-12T21:09:12;19.77;73.68
68109;SHT30;54893;49.864;19.084;2023-08-12T21:14:12;19.37;76.72
68109;SHT30;54893;49.864;19.084;2023-08-12T21:19:13;19.13;76.07
68109;SHT30;54893;49.864;19.084;2023-08-12T21:24:13;19.07;77.21
68109;SHT30;54893;49.864;19.084;2023-08-12T21:29:14;19.07;78.52
68109;SHT30;54893;49.864;19.084;2023-08-12T21:34:14;18.99;76.23
68109;SHT30;54893;49.864;19.084;2023-08-12T21:39:14;18.86;78.20
68109;SHT30;54893;49.864;19.084;2023-08-12T21:44:15;18.75;76.35
68109;SHT30;54893;49.864;19.084;2023-08-12T21:49:15;18.61;77.99
68109;SHT30;54893;49.864;19.084;2023-08-12T21:54:16;18.55;77.60
68109;SHT30;54893;49.864;19.084;2023-08-12T21:59:17;18.65;77.80
68109;SHT30;54893;49.864;19.084;2023-08-12T22:04:19;18.81;77.21
68109;SHT30;54893;49.864;19.084;2023-08-12T22:09:19;18.59;77.83
68109;SHT30;54893;49.864;19.084;2023-08-12T22:14:20;18.48;78.55
68109;SHT30;54893;49.864;19.084;2023-08-12T22:19:20;18.55;78.27
68109;SHT30;54893;49.864;19.084;2023-08-12T22:24:21;18.66;78.30
68109;SHT30;54893;49.864;19.084;2023-08-12T22:29:21;18.69;77.09
68109;SHT30;54893;49.864;19.084;2023-08-12T22:34:21;18.72;78.48
68109;SHT30;54893;49.864;19.084;2023-08-12T22:39:22;18.82;76.46
68109;SHT30;54893;49.864;19.084;2023-08-12T22:44:22;18.72;76.83
68109;SHT30;54893;49.864;19.084;2023-08-12T22:49:22;18.72;76.44
68109;SHT30;54893;49.864;19.084;2023-08-12T22:54:23;18.66;77.06
68109;SHT30;54893;49.864;19.084;2023-08-12T22:59:23;18.71;77.46
68109;SHT30;54893;49.864;19.084;2023-08-12T23:04:24;18.44;78.24
68109;SHT30;54893;49.864;19.084;2023-08-12T23:09:28;18.17;79.10
68109;SHT30;54893;49.864;19.084;2023-08-12T23:14:28;17.91;82.36
68109;SHT30;54893;49.864;19.084;2023-08-12T23:19:29;17.95;79.61
68109;SHT30;54893;49.864;19.084;2023-08-12T23:24:29;17.93;80.36
68109;SHT30;54893;49.864;19.084;2023-08-12T23:29:35;17.90;81.99
68109;SHT30;54893;49.864;19.084;2023-08-12T23:34:38;17.69;82.81
68109;SHT30;54893;49.864;19.084;2023-08-12T23:39:40;17.46;85.08
68109;SHT30;54893;49.864;19.084;2023-08-12T23:44:43;17.26;86.43
68109;SHT30;54893;49.864;19.084;2023-08-12T23:49:44;17.10;86.61
68109;SHT30;54893;49.864;19.084;2023-08-12T23:54:44;16.89;87.23
68109;SHT30;54893;49.864;19.084;2023-08-12T23:59:45;16.73;86.87
